Time;durP1;ratioP1;P1;durP2;ratioP2;P2;SDS_P1;SDS_P2;PMS_P1;PMS_P2;Temp;Humidity;BMP_temperature;BMP_pressure;BME280_temperature;BME280_humidity;BME280_pressure;Samples;Min_cycle;Max_cycle;Signal;HPM_P1;HPM_P2
2022/05/29 00:00:41;;;;;;;1.40;0.63;;;10.90;99.90;;;;;;5008875;28;20577;-87
2022/05/29 00:03:07;;;;;;;1.23;0.93;;;10.90;99.90;;;;;;5009181;28;20196;-88
2022/05/29 00:05:36;;;;;;;1.20;0.60;;;10.90;99.90;;;;;;5026970;28;21033;-86
2022/05/29 00:08:03;;;;;;;0.83;0.83;;;10.90;99.90;;;;;;5041538;28;20245;-85
2022/05/29 00:10:28;;;;;;;1.07;1.07;;;10.90;99.90;;;;;;4992364;28;20244;-86
2022/05/29 00:12:54;;;;;;;5.63;1.20;;;11.00;99.90;;;;;;5008840;28;20218;-87
2022/05/29 00:15:20;;;;;;;0.70;0.70;;;11.00;99.90;;;;;;5009457;28;20218;-84
2022/05/29 00:17:46;;;;;;;3.13;0.77;;;11.10;99.90;;;;;;5009099;28;20191;-88
2022/05/29 00:20:11;;;;;;;1.83;0.70;;;11.20;99.90;;;;;;5008573;28;20222;-86
2022/05/29 00:22:38;;;;;;;3.87;1.20;;;11.00;99.90;;;;;;5008141;28;20258;-87
2022/05/29 00:25:08;;;;;;;0.40;0.40;;;10.80;99.90;;;;;;5006144;28;20222;-87
2022/05/29 00:27:35;;;;;;;1.37;1.00;;;10.70;99.90;;;;;;5025040;28;20214;-88
2022/05/29 00:30:01;;;;;;;2.90;0.87;;;10.70;99.90;;;;;;5040944;28;20703;-87
2022/05/29 00:32:26;;;;;;;1.27;0.80;;;10.70;99.90;;;;;;4989238;28;20195;-87
2022/05/29 00:34:52;;;;;;;2.07;0.97;;;10.70;99.90;;;;;;4991055;28;21090;-89
2022/05/29 00:37:18;;;;;;;4.10;1.60;;;10.80;99.90;;;;;;5009442;28;20211;-88
2022/05/29 00:39:44;;;;;;;0.83;0.70;;;10.90;99.90;;;;;;5009210;28;20249;-87
2022/05/29 00:42:13;;;;;;;0.63;0.63;;;10.90;99.90;;;;;;4992846;28;20215;-89
2022/05/29 00:44:39;;;;;;;0.80;0.80;;;11.00;99.90;;;;;;5009254;28;20266;-86
2022/05/29 00:47:14;;;;;;;1.63;1.10;;;11.00;99.90;;;;;;4993256;28;20301;-87
2022/05/29 00:49:42;;;;;;;0.43;0.43;;;11.10;99.90;;;;;;5029438;28;20769;-85
2022/05/29 00:52:21;;;;;;;7.17;1.03;;;11.10;99.90;;;;;;5028795;28;20241;-88
2022/05/29 00:54:57;;;;;;;0.97;0.87;;;11.20;99.90;;;;;;5029715;28;20232;-87
2022/05/29 00:57:41;;;;;;;0.30;0.30;;;11.20;99.90;;;;;;5029890;28;20240;-88
2022/05/29 01:00:14;;;;;;;0.90;0.90;;;11.20;99.90;;;;;;5030119;28;20187;-88
2022/05/29 01:02:41;;;;;;;0.33;0.33;;;11.30;99.90;;;;;;5028646;28;20186;-88
2022/05/29 01:05:09;;;;;;;1.27;0.73;;;11.30;99.90;;;;;;4995828;28;20302;-88
2022/05/29 01:07:36;;;;;;;1.50;0.90;;;11.40;99.90;;;;;;5028320;28;20385;-86
2022/05/29 01:10:05;;;;;;;1.50;0.97;;;11.30;99.90;;;;;;5028399;28;20230;-88
2022/05/29 01:13:06;;;;;;;1.60;0.70;;;11.30;99.90;;;;;;5027999;28;20242;-84
2022/05/29 01:15:53;;;;;;;0.50;0.50;;;11.30;99.90;;;;;;5016918;28;20214;-88
2022/05/29 01:18:33;;;;;;;0.10;0.10;;;11.10;99.90;;;;;;5044653;28;20189;-88
2022/05/29 01:21:21;;;;;;;0.70;0.70;;;11.00;99.90;;;;;;5029243;28;20301;-87
2022/05/29 01:24:19;;;;;;;0.70;0.70;;;11.00;99.90;;;;;;5028393;28;20265;-86
2022/05/29 01:27:09;;;;;;;7.07;0.80;;;11.00;99.90;;;;;;5027865;28;20305;-86
2022/05/29 01:29:51;;;;;;;1.40;1.27;;;11.10;99.90;;;;;;5028679;28;20251;-87
2022/05/29 01:32:34;;;;;;;1.47;1.07;;;11.10;99.90;;;;;;5026598;28;20249;-86
2022/05/29 01:35:11;;;;;;;0.73;0.73;;;11.10;99.90;;;;;;5024464;28;20718;-85
2022/05/29 01:37:42;;;;;;;0.50;0.47;;;11.20;99.90;;;;;;5023679;28;20272;-85
2022/05/29 01:40:10;;;;;;;0.63;0.63;;;11.20;99.90;;;;;;5023822;28;20227;-87
2022/05/29 01:42:38;;;;;;;0.40;0.30;;;11.30;99.90;;;;;;5024251;28;20218;-85
2022/05/29 01:45:09;;;;;;;1.47;1.37;;;11.20;99.90;;;;;;5028482;28;20248;-87
2022/05/29 01:47:41;;;;;;;1.90;0.63;;;11.20;99.90;;;;;;5027635;28;20228;-86
2022/05/29 01:50:17;;;;;;;0.60;0.60;;;11.30;99.90;;;;;;5027291;28;20703;-87
2022/05/29 01:52:50;;;;;;;1.23;1.20;;;11.30;99.90;;;;;;5027829;28;20226;-87
2022/05/29 01:55:40;;;;;;;2.53;0.50;;;11.30;99.90;;;;;;5027367;28;20545;-86
2022/05/29 01:58:11;;;;;;;1.37;1.27;;;11.30;99.90;;;;;;5028541;28;20214;-87
2022/05/29 02:00:37;;;;;;;4.47;0.87;;;11.40;99.90;;;;;;5028577;28;20667;-86
2022/05/29 02:03:08;;;;;;;1.10;1.00;;;11.50;99.90;;;;;;5009921;28;20718;-87
2022/05/29 02:05:39;;;;;;;2.20;0.53;;;11.40;99.90;;;;;;5024069;28;20233;-88
2022/05/29 02:08:24;;;;;;;1.23;1.13;;;11.50;99.90;;;;;;5024271;28;20301;-87
2022/05/29 02:11:12;;;;;;;0.60;0.50;;;11.40;99.90;;;;;;5022493;28;20228;-88
2022/05/29 02:14:00;;;;;;;1.73;0.83;;;11.40;99.90;;;;;;5019487;28;20231;-87
2022/05/29 02:16:38;;;;;;;0.77;0.57;;;11.40;99.90;;;;;;5008360;28;20703;-86
2022/05/29 02:19:20;;;;;;;2.63;1.20;;;11.40;99.90;;;;;;5016372;28;20321;-89
2022/05/29 02:22:07;;;;;;;2.93;1.43;;;11.40;99.90;;;;;;5026824;28;20242;-87
2022/05/29 02:24:46;;;;;;;8.10;1.23;;;11.40;99.90;;;;;;5027583;28;21048;-88
2022/05/29 02:27:32;;;;;;;1.50;0.70;;;11.40;99.90;;;;;;5042608;28;20198;-86
2022/05/29 02:30:00;;;;;;;0.60;0.60;;;11.20;99.90;;;;;;5028416;28;20632;-87
2022/05/29 02:32:45;;;;;;;1.27;0.73;;;10.90;99.90;;;;;;5026958;28;20226;-88
2022/05/29 02:35:21;;;;;;;0.40;0.40;;;10.90;99.90;;;;;;5026652;28;20226;-87
2022/05/29 02:38:01;;;;;;;3.10;0.73;;;10.80;99.90;;;;;;5026341;28;20226;-84
2022/05/29 02:41:00;;;;;;;0.87;0.87;;;10.80;99.90;;;;;;5026550;28;20217;-87
2022/05/29 02:43:46;;;;;;;1.03;0.83;;;10.80;99.90;;;;;;5026390;28;20553;-86
2022/05/29 02:46:17;;;;;;;1.73;0.90;;;10.80;99.90;;;;;;5026546;28;20226;-88
2022/05/29 02:49:20;;;;;;;1.10;0.73;;;10.70;99.90;;;;;;5043273;28;20322;-90
2022/05/29 02:51:53;;;;;;;0.90;0.90;;;10.60;99.90;;;;;;5043207;28;20218;-89
2022/05/29 02:54:25;;;;;;;0.40;0.40;;;10.70;99.90;;;;;;5026167;28;20220;-87
2022/05/29 02:56:52;;;;;;;2.63;0.67;;;10.80;99.90;;;;;;5027398;28;20187;-89
2022/05/29 02:59:20;;;;;;;0.73;0.73;;;10.70;99.90;;;;;;5042858;28;20223;-88
2022/05/29 03:02:06;;;;;;;7.30;0.57;;;10.60;99.90;;;;;;5027238;28;20793;-87
2022/05/29 03:04:43;;;;;;;0.50;0.50;;;10.60;99.90;;;;;;5026337;28;20230;-88
2022/05/29 03:07:46;;;;;;;0.93;0.73;;;10.60;99.90;;;;;;5026194;28;20241;-88
2022/05/29 03:10:24;;;;;;;1.10;0.83;;;10.70;99.90;;;;;;5026101;28;20801;-88
2022/05/29 03:13:20;;;;;;;1.23;0.80;;;10.70;99.90;;;;;;5041825;28;20222;-88
2022/05/29 03:15:58;;;;;;;3.67;0.60;;;10.70;99.90;;;;;;5027321;28;20307;-89
2022/05/29 03:18:40;;;;;;;1.33;0.83;;;10.80;99.90;;;;;;5026148;28;20244;-88
2022/05/29 03:21:47;;;;;;;3.30;0.90;;;10.80;99.90;;;;;;5025987;28;21070;-89
2022/05/29 03:24:19;;;;;;;0.80;0.80;;;10.80;99.90;;;;;;5024515;28;20183;-88
2022/05/29 03:26:50;;;;;;;0.43;0.43;;;10.80;99.90;;;;;;5023781;28;20187;-88
2022/05/29 03:29:42;;;;;;;0.97;0.93;;;10.80;99.90;;;;;;5022231;28;20269;-86
2022/05/29 03:32:08;;;;;;;0.20;0.20;;;10.90;99.90;;;;;;5022543;28;20573;-87
2022/05/29 03:34:37;;;;;;;3.03;0.93;;;10.90;99.90;;;;;;5005537;28;20222;-87
2022/05/29 03:37:06;;;;;;;0.87;0.40;;;11.00;99.90;;;;;;5023211;28;20260;-87
2022/05/29 03:39:32;;;;;;;0.87;0.53;;;11.00;99.90;;;;;;5023041;28;20223;-87
2022/05/29 03:41:58;;;;;;;1.87;0.43;;;11.00;99.90;;;;;;5025722;28;20639;-86
2022/05/29 03:44:25;;;;;;;0.50;0.50;;;10.80;99.90;;;;;;5026105;28;20222;-87
2022/05/29 03:46:51;;;;;;;0.90;0.50;;;10.80;99.90;;;;;;5025133;28;20226;-86
2022/05/29 03:49:19;;;;;;;0.20;0.20;;;10.80;99.90;;;;;;5025340;28;20219;-86
2022/05/29 03:51:45;;;;;;;0.37;0.37;;;10.80;99.90;;;;;;5024648;28;20222;-87
2022/05/29 03:54:12;;;;;;;0.50;0.50;;;10.80;99.90;;;;;;5025078;28;20213;-86
2022/05/29 03:56:39;;;;;;;0.50;0.50;;;10.80;99.90;;;;;;5009500;28;20186;-88
2022/05/29 03:59:05;;;;;;;1.87;0.50;;;10.90;99.90;;;;;;5008459;28;20214;-87
2022/05/29 04:01:32;;;;;;;2.87;0.90;;;10.90;99.90;;;;;;5025130;28;20447;-88
2022/05/29 04:03:58;;;;;;;0.23;0.20;;;10.90;99.90;;;;;;5025984;28;20218;-87
2022/05/29 04:06:25;;;;;;;1.73;1.40;;;10.90;99.90;;;;;;5025232;28;20222;-88
2022/05/29 04:14:22;;;;;;;1.37;1.27;;;10.90;99.90;;;;;;5029459;28;20865;-87
2022/05/29 04:16:49;;;;;;;2.93;0.77;;;11.00;99.90;;;;;;5028706;28;20258;-87
2022/05/29 04:19:15;;;;;;;2.40;0.90;;;11.00;99.90;;;;;;5011403;28;20219;-86
2022/05/29 04:21:40;;;;;;;2.07;0.73;;;11.00;99.90;;;;;;5011722;28;20222;-87
2022/05/29 04:24:07;;;;;;;2.83;2.73;;;11.10;99.90;;;;;;5028986;28;20202;-89
2022/05/29 04:26:34;;;;;;;0.40;0.40;;;11.10;99.90;;;;;;5030829;28;20195;-87
2022/05/29 04:29:04;;;;;;;1.93;1.23;;;11.10;99.90;;;;;;4995746;28;20245;-88
2022/05/29 04:31:33;;;;;;;1.77;0.53;;;11.20;99.90;;;;;;5028218;28;20329;-86
2022/05/29 04:33:59;;;;;;;1.90;1.03;;;11.10;99.90;;;;;;5027859;28;20229;-87
2022/05/29 04:36:25;;;;;;;0.47;0.47;;;11.10;99.90;;;;;;5029022;28;20214;-86
2022/05/29 04:38:52;;;;;;;0.77;0.70;;;11.20;99.90;;;;;;5013096;28;20191;-87
2022/05/29 04:41:24;;;;;;;2.23;1.43;;;11.20;99.90;;;;;;5027996;28;20752;-87
2022/05/29 04:43:52;;;;;;;6.67;0.53;;;11.20;99.90;;;;;;5027847;28;20223;-87
2022/05/29 04:46:17;;;;;;;0.93;0.77;;;11.20;99.90;;;;;;5028558;28;20235;-86
2022/05/29 04:48:43;;;;;;;1.43;1.33;;;11.20;99.90;;;;;;5028424;28;21066;-87
2022/05/29 04:51:09;;;;;;;2.43;0.80;;;11.20;99.90;;;;;;4996263;28;20210;-86
2022/05/29 04:53:36;;;;;;;0.27;0.27;;;11.20;99.90;;;;;;5029298;28;20186;-85
2022/05/29 04:56:02;;;;;;;1.70;0.70;;;11.20;99.90;;;;;;5030049;28;20226;-85
2022/05/29 04:58:29;;;;;;;1.37;1.37;;;11.30;99.90;;;;;;5028463;28;20218;-85
2022/05/29 05:00:56;;;;;;;1.40;0.87;;;11.30;99.90;;;;;;5027657;28;20329;-88
2022/05/29 05:03:23;;;;;;;0.50;0.50;;;11.30;99.90;;;;;;5026838;28;20214;-86
2022/05/29 05:05:48;;;;;;;1.47;0.60;;;11.10;99.90;;;;;;5009533;28;20688;-86
2022/05/29 05:08:14;;;;;;;2.00;1.90;;;11.00;99.90;;;;;;5008214;28;20226;-87
2022/05/29 05:10:41;;;;;;;0.67;0.57;;;11.00;99.90;;;;;;5025462;28;20795;-87
2022/05/29 05:13:08;;;;;;;0.60;0.60;;;11.00;99.90;;;;;;5042220;28;20245;-86
2022/05/29 05:15:35;;;;;;;2.10;0.83;;;10.90;99.90;;;;;;5012076;28;20225;-86
2022/05/29 05:18:01;;;;;;;0.40;0.30;;;10.90;99.90;;;;;;5026744;28;20305;-85
2022/05/29 05:20:28;;;;;;;0.77;0.37;;;11.00;99.90;;;;;;5010906;28;20195;-86
2022/05/29 05:22:54;;;;;;;4.17;0.67;;;11.00;99.90;;;;;;5008274;28;20226;-86
2022/05/29 05:25:19;;;;;;;0.57;0.57;;;11.10;99.90;;;;;;5026888;28;20226;-86
2022/05/29 05:27:45;;;;;;;1.30;1.20;;;11.10;99.90;;;;;;5009104;28;20667;-84
2022/05/29 05:30:11;;;;;;;1.57;1.00;;;11.10;99.90;;;;;;4991236;28;20632;-87
2022/05/29 05:32:37;;;;;;;5.87;0.87;;;11.00;99.90;;;;;;5026286;28;20209;-85
2022/05/29 05:35:06;;;;;;;8.63;0.90;;;11.10;99.90;;;;;;5025264;28;20770;-87
2022/05/29 05:37:36;;;;;;;0.30;0.30;;;11.10;99.90;;;;;;5026647;28;20349;-86
2022/05/29 05:40:08;;;;;;;7.27;1.73;;;11.20;99.90;;;;;;5025582;28;20223;-88
2022/05/29 05:42:34;;;;;;;1.10;0.90;;;11.30;99.90;;;;;;5025165;28;20218;-83
2022/05/29 05:45:00;;;;;;;1.00;0.37;;;11.30;99.90;;;;;;5008923;28;21046;-85
2022/05/29 05:47:25;;;;;;;3.23;1.07;;;11.40;99.90;;;;;;5005406;28;20266;-85
2022/05/29 05:49:51;;;;;;;0.73;0.43;;;11.40;99.90;;;;;;5005437;28;20730;-86
2022/05/29 05:52:18;;;;;;;0.30;0.30;;;11.50;99.90;;;;;;5005634;28;20376;-86
2022/05/29 05:54:44;;;;;;;2.27;1.03;;;11.60;99.90;;;;;;5006124;28;20219;-85
2022/05/29 05:57:11;;;;;;;1.93;1.23;;;11.70;99.90;;;;;;5005842;28;20198;-86
2022/05/29 05:59:39;;;;;;;0.53;0.53;;;11.80;99.90;;;;;;5007258;28;20286;-86
2022/05/29 06:02:09;;;;;;;2.23;0.50;;;11.90;99.90;;;;;;5005627;28;20723;-86
2022/05/29 06:04:37;;;;;;;1.13;0.50;;;12.20;99.90;;;;;;5010522;28;20215;-86
2022/05/29 06:07:02;;;;;;;2.67;0.87;;;12.20;99.90;;;;;;5006607;28;20219;-86
2022/05/29 06:09:29;;;;;;;5.30;0.57;;;12.10;99.90;;;;;;5017901;28;20227;-86
2022/05/29 06:11:55;;;;;;;1.80;0.30;;;11.90;99.90;;;;;;4990368;28;20187;-85
2022/05/29 06:14:21;;;;;;;0.43;0.43;;;12.00;99.90;;;;;;4990451;28;20291;-88
2022/05/29 06:16:47;;;;;;;2.63;0.60;;;11.70;99.90;;;;;;4989324;28;20331;-86
2022/05/29 06:19:13;;;;;;;2.90;0.80;;;11.50;99.90;;;;;;5005336;28;20242;-85
2022/05/29 06:21:39;;;;;;;0.93;0.40;;;11.50;99.90;;;;;;5007049;28;20226;-87
2022/05/29 06:24:05;;;;;;;1.33;0.70;;;11.50;99.90;;;;;;5004956;28;20191;-86
2022/05/29 06:26:32;;;;;;;0.30;0.30;;;11.50;99.90;;;;;;5007447;28;20651;-87
2022/05/29 06:28:58;;;;;;;1.23;0.70;;;11.50;99.90;;;;;;5007977;28;20227;-87
2022/05/29 06:31:24;;;;;;;0.20;0.20;;;11.50;99.90;;;;;;4989002;28;20285;-87
2022/05/29 06:33:50;;;;;;;3.90;0.53;;;11.50;99.90;;;;;;5003631;28;20219;-84
2022/05/29 06:36:19;;;;;;;1.93;0.87;;;11.50;99.90;;;;;;5005525;28;20265;-88
2022/05/29 06:38:46;;;;;;;2.87;0.53;;;11.60;99.90;;;;;;5021252;28;20175;-90
2022/05/29 06:41:13;;;;;;;0.67;0.63;;;11.50;99.90;;;;;;4986823;28;20215;-89
2022/05/29 06:43:39;;;;;;;4.27;2.53;;;11.50;99.90;;;;;;5002782;28;20757;-89
2022/05/29 06:46:07;;;;;;;0.20;0.20;;;11.60;99.90;;;;;;5004643;28;20256;-88
2022/05/29 06:48:34;;;;;;;3.33;0.90;;;11.60;99.90;;;;;;5021994;28;20251;-87
2022/05/29 06:51:15;;;;;;;1.60;1.03;;;11.60;99.90;;;;;;5006878;28;20462;-85
2022/05/29 06:53:41;;;;;;;1.27;0.40;;;11.70;99.90;;;;;;5006217;28;20309;-83
2022/05/29 06:56:08;;;;;;;0.40;0.40;;;11.70;99.90;;;;;;4988640;28;20265;-84
2022/05/29 06:58:35;;;;;;;0.50;0.30;;;11.60;99.90;;;;;;5005882;28;20254;-85
2022/05/29 07:06:59;;;;;;;0.70;0.70;;;11.00;99.90;;;;;;5007841;28;20218;-85
2022/05/29 07:09:39;;;;;;;2.23;0.60;;;11.00;99.90;;;;;;4991728;28;20211;-88
2022/05/29 07:12:12;;;;;;;0.20;0.20;;;11.20;99.90;;;;;;5022034;28;20191;-88
2022/05/29 07:14:46;;;;;;;2.87;0.70;;;11.30;99.90;;;;;;5022783;28;20206;-86
2022/05/29 07:17:12;;;;;;;1.03;0.40;;;11.30;99.90;;;;;;5004877;28;20207;-86
2022/05/29 07:19:41;;;;;;;0.40;0.40;;;11.40;99.90;;;;;;4988847;28;20289;-86
2022/05/29 07:22:07;;;;;;;1.23;0.63;;;11.40;99.90;;;;;;5006107;28;20225;-87
2022/05/29 07:24:34;;;;;;;0.30;0.30;;;11.40;99.90;;;;;;5007026;28;20314;-88
2022/05/29 07:27:01;;;;;;;0.67;0.67;;;11.50;99.90;;;;;;5006915;28;20183;-86
2022/05/29 07:29:27;;;;;;;0.63;0.63;;;11.70;99.90;;;;;;5006316;28;20219;-87
2022/05/29 07:31:54;;;;;;;1.17;0.83;;;11.70;99.90;;;;;;4989261;28;20231;-85
2022/05/29 07:34:20;;;;;;;0.17;0.17;;;11.90;99.90;;;;;;5022315;28;20223;-85
2022/05/29 07:36:49;;;;;;;2.30;0.23;;;11.90;99.90;;;;;;5005374;28;20227;-86
2022/05/29 07:39:16;;;;;;;0.37;0.33;;;11.80;99.90;;;;;;4988376;28;21096;-86
2022/05/29 07:44:26;;;;;;;0.40;0.40;;;11.60;99.90;;;;;;5005115;28;20219;-86
2022/05/29 07:46:51;;;;;;;0.37;0.30;;;11.60;99.90;;;;;;5005547;28;20219;-86
2022/05/29 07:49:17;;;;;;;0.60;0.60;;;11.50;99.90;;;;;;5004791;28;20265;-85
2022/05/29 07:51:43;;;;;;;0.53;0.53;;;11.50;99.90;;;;;;4989476;28;20719;-87
2022/05/29 07:54:09;;;;;;;0.30;0.30;;;11.50;99.90;;;;;;4990271;28;20197;-85
2022/05/29 07:56:39;;;;;;;0.30;0.30;;;11.50;99.90;;;;;;4990064;28;20191;-87
2022/05/29 07:59:05;;;;;;;0.20;0.20;;;11.70;99.90;;;;;;5022155;28;20223;-86
2022/05/29 08:01:31;;;;;;;2.07;0.80;;;11.60;99.90;;;;;;5006300;28;20234;-85
2022/05/29 08:03:57;;;;;;;0.73;0.37;;;11.50;99.90;;;;;;5004720;28;20696;-86
2022/05/29 08:06:24;;;;;;;1.20;1.10;;;11.50;99.90;;;;;;5002173;28;20257;-87
2022/05/29 08:08:49;;;;;;;0.40;0.40;;;11.20;99.90;;;;;;5002753;28;20191;-87
2022/05/29 08:11:17;;;;;;;2.27;0.27;;;10.90;99.90;;;;;;4986389;28;20231;-88
2022/05/29 08:13:44;;;;;;;0.20;0.20;;;10.80;99.90;;;;;;5000829;28;20223;-85
2022/05/29 08:16:11;;;;;;;4.00;1.50;;;10.90;99.90;;;;;;4984881;28;20222;-87
2022/05/29 08:18:37;;;;;;;0.27;0.27;;;10.90;99.90;;;;;;5009093;28;20330;-88
2022/05/29 08:21:03;;;;;;;27.37;0.90;;;10.90;99.90;;;;;;4999499;28;20193;-86
2022/05/29 08:23:29;;;;;;;0.20;0.20;;;11.00;99.90;;;;;;5000038;28;20187;-86
2022/05/29 08:31:25;;;;;;;0.43;0.43;;;10.80;99.90;;;;;;4981980;28;20239;-88
2022/05/29 08:33:50;;;;;;;0.57;0.57;;;10.90;99.90;;;;;;5003917;28;20244;-87
2022/05/29 08:36:25;;;;;;;3.67;1.77;;;10.90;99.90;;;;;;4984745;28;20589;-86
2022/05/29 08:38:54;;;;;;;1.03;0.93;;;11.10;99.90;;;;;;5002043;28;20195;-87
2022/05/29 08:41:40;;;;;;;0.73;0.73;;;11.40;99.90;;;;;;5010031;28;20596;-86
2022/05/29 08:44:13;;;;;;;0.83;0.70;;;11.60;99.90;;;;;;4997292;28;20223;-84
2022/05/29 08:46:43;;;;;;;0.40;0.40;;;11.70;99.90;;;;;;5001398;28;20666;-87
2022/05/29 08:49:14;;;;;;;2.83;0.43;;;11.80;99.90;;;;;;5001451;28;20215;-84
2022/05/29 08:51:58;;;;;;;0.40;0.40;;;11.80;99.90;;;;;;5002844;28;20241;-87
2022/05/29 08:54:26;;;;;;;0.37;0.37;;;11.90;99.90;;;;;;5003774;28;20243;-85
2022/05/29 08:57:07;;;;;;;0.10;0.10;;;12.00;99.90;;;;;;5023129;28;20198;-87
2022/05/29 08:59:45;;;;;;;0.30;0.30;;;12.00;99.90;;;;;;5007965;28;20183;-86
2022/05/29 09:02:16;;;;;;;0.60;0.27;;;12.00;99.90;;;;;;5006537;28;20211;-84
2022/05/29 09:04:46;;;;;;;1.00;0.20;;;11.80;99.90;;;;;;5008297;28;20214;-88
2022/05/29 09:07:17;;;;;;;0.10;0.10;;;11.70;99.90;;;;;;5006579;28;20216;-85
2022/05/29 09:09:52;;;;;;;0.40;0.40;;;11.60;99.90;;;;;;5007068;28;20215;-85
2022/05/29 09:12:26;;;;;;;2.77;1.43;;;11.50;99.90;;;;;;5006968;28;20221;-90
2022/05/29 09:14:55;;;;;;;1.43;1.27;;;11.50;99.90;;;;;;5008021;28;20564;-84
2022/05/29 09:17:32;;;;;;;0.83;0.50;;;11.70;99.90;;;;;;5007941;28;20195;-86
2022/05/29 09:20:17;;;;;;;0.30;0.30;;;11.80;99.90;;;;;;5005972;28;20226;-90
2022/05/29 09:22:47;;;;;;;0.20;0.20;;;11.70;99.90;;;;;;5008677;28;20221;-88
2022/05/29 09:25:30;;;;;;;0.20;0.20;;;11.70;99.90;;;;;;5001761;28;20319;-88
2022/05/29 09:28:02;;;;;;;3.10;0.70;;;11.80;99.90;;;;;;5006847;28;20242;-85
2022/05/29 09:30:29;;;;;;;1.30;0.60;;;11.90;99.90;;;;;;5004199;28;20243;-85
2022/05/29 09:33:19;;;;;;;0.30;0.30;;;11.90;99.90;;;;;;4990143;28;20222;-85
2022/05/29 09:35:55;;;;;;;0.17;0.17;;;12.00;99.90;;;;;;5023006;28;20708;-85
2022/05/29 09:38:36;;;;;;;0.50;0.40;;;12.00;99.90;;;;;;5006877;28;20206;-89
2022/05/29 09:41:06;;;;;;;0.67;0.50;;;11.80;99.90;;;;;;5006175;28;20226;-86
2022/05/29 09:43:32;;;;;;;0.10;0.10;;;11.60;99.90;;;;;;5007749;28;20219;-86
2022/05/29 09:46:19;;;;;;;2.53;0.40;;;11.70;99.90;;;;;;4990299;28;20231;-84
2022/05/29 09:51:56;;;;;;;0.60;0.60;;;11.80;99.90;;;;;;5006669;28;20231;-87
2022/05/29 09:54:36;;;;;;;1.17;0.40;;;11.90;99.90;;;;;;5006087;28;21211;-86
2022/05/29 09:57:10;;;;;;;0.50;0.50;;;12.20;99.90;;;;;;5006764;28;20506;-86
2022/05/29 09:59:38;;;;;;;0.60;0.60;;;12.30;99.90;;;;;;5007749;28;20273;-85
2022/05/29 10:02:06;;;;;;;0.40;0.40;;;12.10;99.90;;;;;;5005767;28;20235;-84
2022/05/29 10:04:39;;;;;;;0.53;0.33;;;12.50;99.90;;;;;;5022295;28;20386;-84
2022/05/29 10:07:15;;;;;;;0.30;0.30;;;12.80;99.90;;;;;;5004643;28;20223;-85
2022/05/29 10:10:14;;;;;;;0.57;0.50;;;13.00;99.90;;;;;;5005510;28;20214;-85
2022/05/29 10:12:46;;;;;;;0.40;0.40;;;13.30;99.90;;;;;;4997471;28;20246;-85
2022/05/29 10:15:15;;;;;;;4.53;0.60;;;13.10;99.90;;;;;;5004607;28;20222;-85
2022/05/29 10:17:42;;;;;;;0.50;0.33;;;12.60;99.90;;;;;;5004738;28;20189;-85
2022/05/29 10:20:26;;;;;;;2.83;0.60;;;12.40;99.90;;;;;;5001682;28;20254;-85
2022/05/29 10:22:55;;;;;;;1.70;0.63;;;12.40;99.90;;;;;;5006400;28;20219;-87
2022/05/29 10:25:31;;;;;;;0.47;0.47;;;12.20;99.90;;;;;;5004034;28;20223;-85
2022/05/29 10:28:01;;;;;;;0.40;0.40;;;12.40;99.90;;;;;;5004019;28;20211;-87
2022/05/29 10:30:38;;;;;;;0.30;0.30;;;12.50;99.90;;;;;;5005115;28;20277;-87
2022/05/29 10:33:10;;;;;;;1.37;0.43;;;12.60;99.90;;;;;;5021300;28;20210;-87
2022/05/29 10:35:38;;;;;;;7.53;0.63;;;12.70;99.90;;;;;;5006462;28;20195;-86
2022/05/29 10:38:30;;;;;;;0.37;0.37;;;12.70;99.90;;;;;;5005438;28;21013;-87
2022/05/29 10:40:59;;;;;;;1.53;1.40;;;12.30;99.90;;;;;;5002278;28;20305;-87
2022/05/29 10:43:45;;;;;;;2.23;0.57;;;12.30;99.90;;;;;;5004022;28;20223;-85
2022/05/29 10:46:10;;;;;;;0.40;0.40;;;12.30;99.90;;;;;;5005948;28;20227;-87
2022/05/29 10:49:18;;;;;;;0.60;0.60;;;12.20;99.90;;;;;;5006485;28;20211;-88
2022/05/29 10:52:14;;;;;;;1.93;0.90;;;12.10;99.90;;;;;;4969202;28;20307;-84
2022/05/29 10:55:08;;;;;;;1.23;0.70;;;12.10;99.90;;;;;;5005967;28;20302;-89
2022/05/29 10:58:09;;;;;;;1.53;0.80;;;12.20;99.90;;;;;;5020113;28;20219;-86
2022/05/29 11:01:00;;;;;;;0.30;0.30;;;12.30;99.90;;;;;;5003319;28;20219;-88
2022/05/29 11:03:33;;;;;;;0.30;0.30;;;12.20;99.90;;;;;;5020483;28;20222;-88
2022/05/29 11:06:26;;;;;;;1.17;1.13;;;12.40;99.90;;;;;;5005069;28;20183;-89
2022/05/29 11:09:30;;;;;;;0.27;0.27;;;12.70;99.90;;;;;;4996052;28;20203;-87
2022/05/29 11:12:16;;;;;;;0.70;0.70;;;12.80;99.90;;;;;;5003493;28;20258;-90
2022/05/29 11:14:48;;;;;;;0.20;0.20;;;13.20;99.90;;;;;;5009890;28;20195;-88
2022/05/29 11:17:19;;;;;;;3.90;1.00;;;13.10;99.90;;;;;;5019994;28;20219;-88
2022/05/29 11:20:11;;;;;;;0.40;0.40;;;13.00;99.90;;;;;;5021137;28;20265;-88
2022/05/29 11:23:03;;;;;;;0.60;0.60;;;12.80;99.90;;;;;;5021499;28;20225;-86
2022/05/29 11:25:58;;;;;;;2.60;0.93;;;12.70;99.90;;;;;;5037854;28;20208;-89
2022/05/29 11:28:38;;;;;;;8.37;0.50;;;12.90;99.90;;;;;;5024173;28;20655;-89
2022/05/29 11:31:29;;;;;;;1.33;1.00;;;13.10;99.90;;;;;;5022421;28;20740;-87
2022/05/29 11:34:09;;;;;;;0.30;0.30;;;13.00;99.90;;;;;;5036475;28;20363;-86
2022/05/29 11:36:44;;;;;;;0.50;0.50;;;12.70;99.90;;;;;;5022396;28;20234;-85
2022/05/29 11:39:28;;;;;;;0.73;0.73;;;12.50;99.90;;;;;;5020774;28;20361;-87
2022/05/29 11:42:13;;;;;;;2.93;0.50;;;12.60;99.90;;;;;;5013859;28;20206;-87
2022/05/29 11:44:57;;;;;;;0.50;0.50;;;12.60;99.90;;;;;;5021623;28;20222;-86
2022/05/29 11:53:36;;;;;;;0.50;0.43;;;12.30;99.90;;;;;;5020991;28;20229;-87
2022/05/29 11:56:09;;;;;;;2.47;0.40;;;12.30;99.90;;;;;;5020740;28;20222;-86
2022/05/29 11:59:20;;;;;;;2.63;0.57;;;12.50;99.90;;;;;;5021714;28;20179;-86
2022/05/29 12:02:09;;;;;;;0.10;0.10;;;12.80;99.90;;;;;;5021543;28;20238;-86
2022/05/29 12:05:08;;;;;;;0.83;0.70;;;12.70;99.90;;;;;;5011292;28;20285;-88
2022/05/29 12:07:50;;;;;;;1.70;0.67;;;12.70;99.90;;;;;;4996947;28;20201;-88
2022/05/29 12:10:22;;;;;;;0.20;0.20;;;12.60;99.90;;;;;;5021487;28;20624;-87
2022/05/29 12:12:59;;;;;;;0.30;0.30;;;12.70;99.90;;;;;;5021113;28;20278;-87
2022/05/29 12:15:25;;;;;;;0.23;0.23;;;12.70;99.90;;;;;;5020503;28;20485;-87
2022/05/29 12:18:00;;;;;;;1.23;0.77;;;12.70;99.90;;;;;;5021136;28;20210;-87
2022/05/29 12:20:43;;;;;;;0.60;0.50;;;12.70;99.90;;;;;;5022330;28;20217;-86
2022/05/29 12:23:27;;;;;;;0.90;0.67;;;12.70;99.90;;;;;;5020869;28;20229;-87
2022/05/29 12:26:06;;;;;;;6.30;1.23;;;12.70;99.90;;;;;;5021628;28;20222;-85
2022/05/29 12:28:53;;;;;;;4.80;0.80;;;12.80;99.90;;;;;;5038262;28;20179;-88
2022/05/29 12:31:33;;;;;;;0.37;0.20;;;12.80;99.90;;;;;;5032325;28;20230;-90
2022/05/29 12:34:00;;;;;;;3.53;1.60;;;13.10;99.90;;;;;;5026660;28;20226;-90
2022/05/29 12:37:06;;;;;;;0.83;0.37;;;13.30;99.90;;;;;;5025133;28;20250;-87
2022/05/29 12:40:10;;;;;;;1.03;0.47;;;13.30;99.90;;;;;;5025319;28;20305;-90
2022/05/29 12:42:51;;;;;;;1.37;0.53;;;13.20;99.90;;;;;;4964521;28;20228;-89
2022/05/29 12:45:35;;;;;;;0.30;0.30;;;13.20;99.90;;;;;;5020705;28;20687;-91
2022/05/29 12:48:38;;;;;;;0.33;0.33;;;12.80;99.90;;;;;;5024086;28;20222;-91
2022/05/29 12:51:07;;;;;;;0.60;0.60;;;12.40;99.90;;;;;;5024801;28;20233;-89
2022/05/29 12:53:58;;;;;;;0.67;0.40;;;12.10;99.90;;;;;;5025410;28;20246;-89
2022/05/29 12:56:45;;;;;;;0.40;0.40;;;12.10;99.90;;;;;;5025442;28;20227;-89
2022/05/29 12:59:52;;;;;;;2.03;0.50;;;12.10;99.90;;;;;;5025763;28;20221;-89
2022/05/29 13:02:55;;;;;;;1.07;1.07;;;12.30;99.90;;;;;;4997122;28;20218;-88
2022/05/29 13:05:55;;;;;;;2.33;0.93;;;12.30;99.90;;;;;;5024387;28;20214;-89
2022/05/29 13:08:47;;;;;;;1.13;1.00;;;12.50;99.90;;;;;;5023094;28;20305;-92
2022/05/29 13:11:20;;;;;;;0.97;0.27;;;12.80;99.90;;;;;;5024033;28;20226;-91
2022/05/29 13:13:47;;;;;;;12.50;1.43;;;12.70;99.90;;;;;;5026155;28;20312;-88
2022/05/29 13:16:30;;;;;;;3.03;1.33;;;12.60;99.90;;;;;;5025291;28;20229;-89
2022/05/29 13:21:31;;;;;;;4.00;0.60;;;12.40;99.90;;;;;;5024702;28;20879;-86
2022/05/29 13:23:58;;;;;;;1.10;0.70;;;12.60;99.90;;;;;;5025397;28;20222;-88
2022/05/29 13:26:25;;;;;;;5.93;2.00;;;12.50;99.90;;;;;;5007358;28;20219;-89
2022/05/29 13:29:09;;;;;;;1.40;0.77;;;12.50;99.90;;;;;;5023331;28;20211;-87
2022/05/29 13:32:12;;;;;;;0.83;0.40;;;12.70;99.90;;;;;;5024284;28;20304;-89
2022/05/29 13:34:45;;;;;;;1.90;1.10;;;12.70;99.90;;;;;;5023498;28;20204;-88
2022/05/29 13:37:44;;;;;;;0.53;0.40;;;12.80;99.90;;;;;;5009214;28;20190;-88
2022/05/29 13:40:30;;;;;;;2.83;0.87;;;12.80;99.90;;;;;;5038763;28;20266;-90
2022/05/29 13:43:15;;;;;;;0.70;0.60;;;12.90;99.90;;;;;;5022615;28;20250;-87
2022/05/29 13:45:43;;;;;;;7.60;0.87;;;12.90;99.90;;;;;;5023749;28;20211;-89
2022/05/29 13:48:17;;;;;;;7.77;1.07;;;13.20;99.90;;;;;;5024368;28;20227;-89
2022/05/29 13:50:55;;;;;;;1.97;0.87;;;13.40;99.90;;;;;;5025565;28;20263;-88
2022/05/29 13:53:31;;;;;;;3.77;1.00;;;13.50;99.90;;;;;;5037403;28;20253;-87
2022/05/29 13:56:03;;;;;;;1.13;0.83;;;13.50;99.90;;;;;;5023597;28;20583;-86